sensor_id;sensor_type;location;lat;lon;timestamp;pressure;altitude;pressure_sealevel;temperature;humidity
71768;BME280;59604;52.138;5.446;2023-01-29T00:01:05;103209.66;;;2.83;90.83
71768;BME280;59604;52.138;5.446;2023-01-29T00:03:33;103204.47;;;2.83;90.87
71768;BME280;59604;52.138;5.446;2023-01-29T00:06:03;103202.72;;;2.84;91.04
71768;BME280;59604;52.138;5.446;2023-01-29T00:08:35;103195.81;;;2.83;91.21
71768;BME280;59604;52.138;5.446;2023-01-29T00:11:07;103188.84;;;2.83;90.97
71768;BME280;59604;52.138;5.446;2023-01-29T00:13:34;103182.81;;;2.83;90.90
71768;BME280;59604;52.138;5.446;2023-01-29T00:16:01;103175.00;;;2.83;91.05
71768;BME280;59604;52.138;5.446;2023-01-29T00:18:28;103171.56;;;2.82;91.04
71768;BME280;59604;52.138;5.446;2023-01-29T00:20:55;103176.75;;;2.82;90.97
71768;BME280;59604;52.138;5.446;2023-01-29T00:23:22;103165.50;;;2.82;91.21
71768;BME280;59604;52.138;5.446;2023-01-29T00:25:49;103162.06;;;2.81;91.05
71768;BME280;59604;52.138;5.446;2023-01-29T00:28:15;103149.13;;;2.80;91.19
71768;BME280;59604;52.138;5.446;2023-01-29T00:30:42;103157.88;;;2.79;91.20
71768;BME280;59604;52.138;5.446;2023-01-29T00:33:08;103149.31;;;2.77;91.38
71768;BME280;59604;52.138;5.446;2023-01-29T00:35:38;103150.16;;;2.77;91.13
71768;BME280;59604;52.138;5.446;2023-01-29T00:38:05;103158.88;;;2.76;91.31
71768;BME280;59604;52.138;5.446;2023-01-29T00:40:32;103166.75;;;2.75;91.66
71768;BME280;59604;52.138;5.446;2023-01-29T00:43:21;103165.00;;;2.75;91.70
71768;BME280;59604;52.138;5.446;2023-01-29T00:46:07;103167.59;;;2.75;91.81
71768;BME280;59604;52.138;5.446;2023-01-29T00:48:33;103166.75;;;2.75;91.96
71768;BME280;59604;52.138;5.446;2023-01-29T00:51:01;103154.66;;;2.74;91.24
71768;BME280;59604;52.138;5.446;2023-01-29T00:53:28;103152.06;;;2.74;91.78
71768;BME280;59604;52.138;5.446;2023-01-29T00:55:55;103153.84;;;2.73;91.58
71768;BME280;59604;52.138;5.446;2023-01-29T00:58:21;103147.78;;;2.73;92.03
71768;BME280;59604;52.138;5.446;2023-01-29T01:00:54;103152.13;;;2.72;91.92
71768;BME280;59604;52.138;5.446;2023-01-29T01:03:21;103145.25;;;2.71;92.06
71768;BME280;59604;52.138;5.446;2023-01-29T01:05:47;103149.53;;;2.72;92.29
71768;BME280;59604;52.138;5.446;2023-01-29T01:08:14;103147.84;;;2.71;92.10
71768;BME280;59604;52.138;5.446;2023-01-29T01:11:04;103141.03;;;2.69;92.08
71768;BME280;59604;52.138;5.446;2023-01-29T01:13:32;103149.63;;;2.71;92.28
71768;BME280;59604;52.138;5.446;2023-01-29T01:15:59;103142.66;;;2.71;92.28
71768;BME280;59604;52.138;5.446;2023-01-29T01:18:30;103139.22;;;2.71;92.30
71768;BME280;59604;52.138;5.446;2023-01-29T01:20:57;103135.78;;;2.70;92.40
71768;BME280;59604;52.138;5.446;2023-01-29T01:23:24;103133.16;;;2.70;92.13
71768;BME280;59604;52.138;5.446;2023-01-29T01:25:51;103130.56;;;2.70;92.36
71768;BME280;59604;52.138;5.446;2023-01-29T01:28:18;103141.72;;;2.72;92.62
71768;BME280;59604;52.138;5.446;2023-01-29T01:30:44;103136.59;;;2.71;92.27
71768;BME280;59604;52.138;5.446;2023-01-29T01:33:11;103146.91;;;2.72;92.71
71768;BME280;59604;52.138;5.446;2023-01-29T01:35:38;103153.06;;;2.71;92.61
71768;BME280;59604;52.138;5.446;2023-01-29T01:38:05;103146.09;;;2.72;92.38
71768;BME280;59604;52.138;5.446;2023-01-29T01:40:32;103152.22;;;2.71;92.46
71768;BME280;59604;52.138;5.446;2023-01-29T01:42:59;103149.63;;;2.71;92.72
71768;BME280;59604;52.138;5.446;2023-01-29T01:45:34;103153.97;;;2.70;92.41
71768;BME280;59604;52.138;5.446;2023-01-29T01:48:02;103154.81;;;2.71;92.96
71768;BME280;59604;52.138;5.446;2023-01-29T01:50:34;103150.44;;;2.71;92.94
71768;BME280;59604;52.138;5.446;2023-01-29T01:53:06;103143.56;;;2.70;92.97
71768;BME280;59604;52.138;5.446;2023-01-29T01:55:37;103149.63;;;2.71;92.99
71768;BME280;59604;52.138;5.446;2023-01-29T01:58:10;103153.88;;;2.72;92.68
71768;BME280;59604;52.138;5.446;2023-01-29T02:00:38;103149.53;;;2.72;92.68
71768;BME280;59604;52.138;5.446;2023-01-29T02:03:06;103146.09;;;2.72;92.75
71768;BME280;59604;52.138;5.446;2023-01-29T02:05:53;103137.44;;;2.71;92.30
71768;BME280;59604;52.138;5.446;2023-01-29T02:08:53;103146.09;;;2.72;92.71
71768;BME280;59604;52.138;5.446;2023-01-29T02:11:40;103151.28;;;2.72;92.68
71768;BME280;59604;52.138;5.446;2023-01-29T02:14:07;103152.22;;;2.71;92.72
71768;BME280;59604;52.138;5.446;2023-01-29T02:16:35;103145.25;;;2.71;92.63
71768;BME280;59604;52.138;5.446;2023-01-29T02:19:03;103152.22;;;2.71;92.73
71768;BME280;59604;52.138;5.446;2023-01-29T02:21:51;103145.25;;;2.71;93.00
71768;BME280;59604;52.138;5.446;2023-01-29T02:27:08;103147.00;;;2.71;92.76
71768;BME280;59604;52.138;5.446;2023-01-29T02:29:56;103153.06;;;2.71;92.75
71768;BME280;59604;52.138;5.446;2023-01-29T02:32:36;103143.47;;;2.72;92.64
71768;BME280;59604;52.138;5.446;2023-01-29T02:35:14;103148.69;;;2.72;93.10
71768;BME280;59604;52.138;5.446;2023-01-29T02:40:46;103164.31;;;2.72;92.49
71768;BME280;59604;52.138;5.446;2023-01-29T02:49:24;103165.13;;;2.72;92.79
71768;BME280;59604;52.138;5.446;2023-01-29T02:52:03;103174.72;;;2.72;92.67
71768;BME280;59604;52.138;5.446;2023-01-29T02:57:36;103172.06;;;2.73;92.77
71768;BME280;59604;52.138;5.446;2023-01-29T03:00:25;103165.06;;;2.74;92.50
71768;BME280;59604;52.138;5.446;2023-01-29T03:05:27;103163.31;;;2.74;92.67
71768;BME280;59604;52.138;5.446;2023-01-29T03:08:00;103156.34;;;2.75;92.82
71768;BME280;59604;52.138;5.446;2023-01-29T03:10:38;103163.22;;;2.76;92.50
71768;BME280;59604;52.138;5.446;2023-01-29T03:13:12;103154.66;;;2.74;92.25
71768;BME280;59604;52.138;5.446;2023-01-29T03:15:43;103150.31;;;2.74;92.37
71768;BME280;59604;52.138;5.446;2023-01-29T03:18:23;103143.34;;;2.75;92.71
71768;BME280;59604;52.138;5.446;2023-01-29T03:20:57;103140.81;;;2.73;92.18
71768;BME280;59604;52.138;5.446;2023-01-29T03:23:31;103145.94;;;2.75;92.46
71768;BME280;59604;52.138;5.446;2023-01-29T03:26:20;103136.44;;;2.74;92.64
71768;BME280;59604;52.138;5.446;2023-01-29T03:29:08;103130.41;;;2.73;92.60
71768;BME280;59604;52.138;5.446;2023-01-29T03:31:56;103126.03;;;2.74;92.53
71768;BME280;59604;52.138;5.446;2023-01-29T03:34:34;103125.22;;;2.73;92.84
71768;BME280;59604;52.138;5.446;2023-01-29T03:37:07;103112.19;;;2.73;92.93
71768;BME280;59604;52.138;5.446;2023-01-29T03:39:39;103112.25;;;2.72;92.76
71768;BME280;59604;52.138;5.446;2023-01-29T03:47:19;103103.72;;;2.70;93.35
71768;BME280;59604;52.138;5.446;2023-01-29T03:52:54;103098.50;;;2.70;93.42
71768;BME280;59604;52.138;5.446;2023-01-29T03:55:32;103100.28;;;2.69;93.11
71768;BME280;59604;52.138;5.446;2023-01-29T03:58:41;103102.94;;;2.67;93.45
71768;BME280;59604;52.138;5.446;2023-01-29T04:01:15;103090.75;;;2.68;93.30
71768;BME280;59604;52.138;5.446;2023-01-29T04:03:55;103083.88;;;2.67;93.19
71768;BME280;59604;52.138;5.446;2023-01-29T04:06:30;103089.09;;;2.67;93.51
71768;BME280;59604;52.138;5.446;2023-01-29T04:09:03;103085.66;;;2.66;93.76
71768;BME280;59604;52.138;5.446;2023-01-29T04:11:32;103079.50;;;2.67;93.50
71768;BME280;59604;52.138;5.446;2023-01-29T04:14:01;103080.44;;;2.66;93.37
71768;BME280;59604;52.138;5.446;2023-01-29T04:16:34;103070.09;;;2.65;93.52
71768;BME280;59604;52.138;5.446;2023-01-29T04:19:04;103070.97;;;2.65;93.69
71768;BME280;59604;52.138;5.446;2023-01-29T04:21:30;103078.84;;;2.64;93.45
71768;BME280;59604;52.138;5.446;2023-01-29T04:23:58;103078.00;;;2.63;93.77
71768;BME280;59604;52.138;5.446;2023-01-29T04:32:27;103070.19;;;2.63;93.44
71768;BME280;59604;52.138;5.446;2023-01-29T04:38:10;103071.97;;;2.63;93.23
71768;BME280;59604;52.138;5.446;2023-01-29T04:41:04;103068.53;;;2.62;93.55
71768;BME280;59604;52.138;5.446;2023-01-29T04:46:15;103063.38;;;2.61;93.09
71768;BME280;59604;52.138;5.446;2023-01-29T04:53:59;103063.47;;;2.59;93.22
71768;BME280;59604;52.138;5.446;2023-01-29T04:56:34;103049.53;;;2.60;93.04
71768;BME280;59604;52.138;5.446;2023-01-29T04:59:07;103044.44;;;2.59;93.15
71768;BME280;59604;52.138;5.446;2023-01-29T05:01:35;103047.09;;;2.57;93.09
71768;BME280;59604;52.138;5.446;2023-01-29T05:04:05;103044.50;;;2.57;92.89
71768;BME280;59604;52.138;5.446;2023-01-29T05:06:34;103036.88;;;2.54;92.73
71768;BME280;59604;52.138;5.446;2023-01-29T05:09:02;103037.72;;;2.55;92.59
71768;BME280;59604;52.138;5.446;2023-01-29T05:11:31;103044.69;;;2.54;92.51
71768;BME280;59604;52.138;5.446;2023-01-29T05:14:01;103035.19;;;2.53;92.35
71768;BME280;59604;52.138;5.446;2023-01-29T05:16:32;103037.78;;;2.53;92.73
71768;BME280;59604;52.138;5.446;2023-01-29T05:19:11;103035.25;;;2.52;92.31
71768;BME280;59604;52.138;5.446;2023-01-29T05:21:41;103042.13;;;2.53;92.26
71768;BME280;59604;52.138;5.446;2023-01-29T05:24:16;103045.66;;;2.52;92.42
71768;BME280;59604;52.138;5.446;2023-01-29T05:26:47;103044.06;;;2.49;91.95
71768;BME280;59604;52.138;5.446;2023-01-29T05:29:32;103051.03;;;2.49;92.38
71768;BME280;59604;52.138;5.446;2023-01-29T05:31:59;103050.19;;;2.48;92.48
71768;BME280;59604;52.138;5.446;2023-01-29T05:34:25;103058.00;;;2.48;92.36
71768;BME280;59604;52.138;5.446;2023-01-29T05:36:52;103051.88;;;2.49;92.33
71768;BME280;59604;52.138;5.446;2023-01-29T05:39:19;103048.53;;;2.47;91.98
71768;BME280;59604;52.138;5.446;2023-01-29T05:41:45;103048.44;;;2.49;92.03
71768;BME280;59604;52.138;5.446;2023-01-29T05:44:12;103045.91;;;2.47;91.88
71768;BME280;59604;52.138;5.446;2023-01-29T05:46:39;103046.75;;;2.48;91.78
71768;BME280;59604;52.138;5.446;2023-01-29T05:49:05;103046.75;;;2.48;92.09
71768;BME280;59604;52.138;5.446;2023-01-29T05:51:32;103064.03;;;2.49;91.81
71768;BME280;59604;52.138;5.446;2023-01-29T05:53:58;103055.41;;;2.48;91.51
71768;BME280;59604;52.138;5.446;2023-01-29T05:56:25;103043.22;;;2.49;92.08
71768;BME280;59604;52.138;5.446;2023-01-29T05:58:51;103033.66;;;2.49;91.66
71768;BME280;59604;52.138;5.446;2023-01-29T06:01:21;103031.16;;;2.48;91.48
71768;BME280;59604;52.138;5.446;2023-01-29T06:03:48;103026.78;;;2.48;91.77
71768;BME280;59604;52.138;5.446;2023-01-29T06:06:15;103026.78;;;2.48;91.62
71768;BME280;59604;52.138;5.446;2023-01-29T06:08:42;103018.97;;;2.48;91.38
71768;BME280;59604;52.138;5.446;2023-01-29T06:11:10;103020.81;;;2.46;91.25
71768;BME280;59604;52.138;5.446;2023-01-29T06:13:38;103014.78;;;2.46;91.56
71768;BME280;59604;52.138;5.446;2023-01-29T06:16:06;103015.59;;;2.46;90.99
71768;BME280;59604;52.138;5.446;2023-01-29T06:18:33;103018.31;;;2.45;91.44
71768;BME280;59604;52.138;5.446;2023-01-29T06:21:04;103009.72;;;2.42;91.49
71768;BME280;59604;52.138;5.446;2023-01-29T06:23:31;103010.59;;;2.43;91.44
71768;BME280;59604;52.138;5.446;2023-01-29T06:26:03;103006.22;;;2.44;91.12
71768;BME280;59604;52.138;5.446;2023-01-29T06:28:30;103001.91;;;2.42;91.54
71768;BME280;59604;52.138;5.446;2023-01-29T06:30:58;103006.22;;;2.44;91.23
71768;BME280;59604;52.138;5.446;2023-01-29T06:33:37;102996.66;;;2.44;91.32
71768;BME280;59604;52.138;5.446;2023-01-29T06:36:04;102998.41;;;2.44;91.10
71768;BME280;59604;52.138;5.446;2023-01-29T06:38:31;102992.38;;;2.43;90.91
71768;BME280;59604;52.138;5.446;2023-01-29T06:40:58;102999.25;;;2.44;90.59
71768;BME280;59604;52.138;5.446;2023-01-29T06:43:24;102995.72;;;2.45;90.44
71768;BME280;59604;52.138;5.446;2023-01-29T06:45:53;102999.16;;;2.46;91.19
71768;BME280;59604;52.138;5.446;2023-01-29T06:48:21;103000.94;;;2.45;90.65
71768;BME280;59604;52.138;5.446;2023-01-29T06:50:48;103013.00;;;2.46;90.82
71768;BME280;59604;52.138;5.446;2023-01-29T06:53:16;103001.75;;;2.46;90.98
71768;BME280;59604;52.138;5.446;2023-01-29T06:55:50;103000.84;;;2.47;90.37
71768;BME280;59604;52.138;5.446;2023-01-29T06:58:17;102994.81;;;2.46;90.61
71768;BME280;59604;52.138;5.446;2023-01-29T07:00:43;102992.19;;;2.46;90.23
71768;BME280;59604;52.138;5.446;2023-01-29T07:03:10;103000.00;;;2.46;90.90
71768;BME280;59604;52.138;5.446;2023-01-29T07:05:37;103001.75;;;2.46;90.58
71768;BME280;59604;52.138;5.446;2023-01-29T07:08:04;102998.22;;;2.47;90.66
71768;BME280;59604;52.138;5.446;2023-01-29T07:10:30;102984.34;;;2.48;90.30
71768;BME280;59604;52.138;5.446;2023-01-29T07:13:00;102999.00;;;2.49;89.80
71768;BME280;59604;52.138;5.446;2023-01-29T07:15:27;102991.19;;;2.49;90.30
71768;BME280;59604;52.138;5.446;2023-01-29T07:18:01;102996.41;;;2.49;89.91
71768;BME280;59604;52.138;5.446;2023-01-29T07:20:28;103002.44;;;2.49;89.86
71768;BME280;59604;52.138;5.446;2023-01-29T07:22:56;102999.84;;;2.49;90.21
71768;BME280;59604;52.138;5.446;2023-01-29T07:25:24;103010.34;;;2.48;89.76
71768;BME280;59604;52.138;5.446;2023-01-29T07:27:51;102997.34;;;2.48;90.07
71768;BME280;59604;52.138;5.446;2023-01-29T07:30:17;102992.97;;;2.48;89.86
71768;BME280;59604;52.138;5.446;2023-01-29T07:32:44;102995.56;;;2.48;89.63
71768;BME280;59604;52.138;5.446;2023-01-29T07:35:11;102995.56;;;2.48;89.97
71768;BME280;59604;52.138;5.446;2023-01-29T07:37:37;102999.84;;;2.49;90.01
71768;BME280;59604;52.138;5.446;2023-01-29T07:40:04;102994.63;;;2.49;90.22
71768;BME280;59604;52.138;5.446;2023-01-29T07:42:39;102988.50;;;2.50;89.91
71768;BME280;59604;52.138;5.446;2023-01-29T07:45:09;102981.63;;;2.49;90.00
71768;BME280;59604;52.138;5.446;2023-01-29T07:47:36;102984.16;;;2.51;89.83
71768;BME280;59604;52.138;5.446;2023-01-29T07:50:03;102979.81;;;2.51;89.93
71768;BME280;59604;52.138;5.446;2023-01-29T07:52:32;102971.16;;;2.51;89.88
71768;BME280;59604;52.138;5.446;2023-01-29T07:54:58;102972.75;;;2.53;89.56
71768;BME280;59604;52.138;5.446;2023-01-29T07:57:25;102972.75;;;2.53;89.34
71768;BME280;59604;52.138;5.446;2023-01-29T07:59:52;102964.94;;;2.53;89.46
71768;BME280;59604;52.138;5.446;2023-01-29T08:02:18;102957.22;;;2.52;89.49
71768;BME280;59604;52.138;5.446;2023-01-29T08:04:45;102957.97;;;2.54;89.50
71768;BME280;59604;52.138;5.446;2023-01-29T08:07:11;102950.94;;;2.56;89.42
71768;BME280;59604;52.138;5.446;2023-01-29T08:09:38;102956.91;;;2.58;89.53
71768;BME280;59604;52.138;5.446;2023-01-29T08:12:04;102955.03;;;2.60;89.35
71768;BME280;59604;52.138;5.446;2023-01-29T08:14:31;102952.44;;;2.60;89.48
71768;BME280;59604;52.138;5.446;2023-01-29T08:16:58;102953.22;;;2.62;89.45
71768;BME280;59604;52.138;5.446;2023-01-29T08:19:24;102950.63;;;2.62;89.44
71768;BME280;59604;52.138;5.446;2023-01-29T08:21:51;102953.88;;;2.65;89.35
71768;BME280;59604;52.138;5.446;2023-01-29T08:24:17;102959.00;;;2.67;89.28
71768;BME280;59604;52.138;5.446;2023-01-29T08:26:44;102958.91;;;2.69;89.23
71768;BME280;59604;52.138;5.446;2023-01-29T08:29:11;102953.63;;;2.70;89.10
71768;BME280;59604;52.138;5.446;2023-01-29T08:31:38;102954.38;;;2.72;88.83
71768;BME280;59604;52.138;5.446;2023-01-29T08:34:04;102946.41;;;2.75;89.06
71768;BME280;59604;52.138;5.446;2023-01-29T08:36:31;102945.56;;;2.75;88.67
71768;BME280;59604;52.138;5.446;2023-01-29T08:38:58;102934.22;;;2.76;88.93
71768;BME280;59604;52.138;5.446;2023-01-29T08:41:24;102930.72;;;2.77;88.78
71768;BME280;59604;52.138;5.446;2023-01-29T08:43:51;102931.38;;;2.80;88.38
71768;BME280;59604;52.138;5.446;2023-01-29T08:46:18;102924.31;;;2.82;88.65
71768;BME280;59604;52.138;5.446;2023-01-29T08:48:44;102922.47;;;2.84;88.27
71768;BME280;59604;52.138;5.446;2023-01-29T08:51:11;102930.19;;;2.86;88.19
71768;BME280;59604;52.138;5.446;2023-01-29T08:53:38;102924.91;;;2.87;88.12
71768;BME280;59604;52.138;5.446;2023-01-29T08:56:05;102919.63;;;2.89;88.35
71768;BME280;59604;52.138;5.446;2023-01-29T08:58:31;102922.03;;;2.92;88.09
71768;BME280;59604;52.138;5.446;2023-01-29T09:01:09;102908.03;;;2.95;88.38
71768;BME280;59604;52.138;5.446;2023-01-29T09:03:35;102916.56;;;2.97;88.16
71768;BME280;59604;52.138;5.446;2023-01-29T09:06:02;102920.78;;;2.99;87.79
71768;BME280;59604;52.138;5.446;2023-01-29T09:08:29;102913.69;;;3.01;87.85
71768;BME280;59604;52.138;5.446;2023-01-29T09:10:57;102915.31;;;3.04;87.56
71768;BME280;59604;52.138;5.446;2023-01-29T09:13:25;102918.66;;;3.06;87.74
71768;BME280;59604;52.138;5.446;2023-01-29T09:15:52;102918.66;;;3.06;87.49
71768;BME280;59604;52.138;5.446;2023-01-29T09:18:19;102920.25;;;3.08;87.13
71768;BME280;59604;52.138;5.446;2023-01-29T09:20:47;102918.41;;;3.10;87.18
71768;BME280;59604;52.138;5.446;2023-01-29T09:23:14;102914.88;;;3.11;87.00
71768;BME280;59604;52.138;5.446;2023-01-29T09:25:41;102920.63;;;3.17;87.13
71768;BME280;59604;52.138;5.446;2023-01-29T09:28:08;102922.22;;;3.19;86.84
71768;BME280;59604;52.138;5.446;2023-01-29T09:30:35;102929.88;;;3.22;86.74
71768;BME280;59604;52.138;5.446;2023-01-29T09:33:04;102925.44;;;3.24;86.61
71768;BME280;59604;52.138;5.446;2023-01-29T09:35:31;102920.94;;;3.26;86.42
71768;BME280;59604;52.138;5.446;2023-01-29T09:38:00;102919.94;;;3.29;86.28
71768;BME280;59604;52.138;5.446;2023-01-29T09:45:49;102922.00;;;3.38;85.45
71768;BME280;59604;52.138;5.446;2023-01-29T09:48:19;102914.94;;;3.40;85.49
71768;BME280;59604;52.138;5.446;2023-01-29T09:50:50;102914.00;;;3.41;85.28
71768;BME280;59604;52.138;5.446;2023-01-29T09:53:27;102915.69;;;3.42;85.36
71768;BME280;59604;52.138;5.446;2023-01-29T09:56:03;102921.47;;;3.47;85.49
71768;BME280;59604;52.138;5.446;2023-01-29T09:58:34;102923.03;;;3.50;85.52
71768;BME280;59604;52.138;5.446;2023-01-29T10:23:33;102899.06;;;3.59;84.95
71768;BME280;59604;52.138;5.446;2023-01-29T10:26:09;102898.31;;;3.57;84.87
71768;BME280;59604;52.138;5.446;2023-01-29T10:28:38;102894.97;;;3.55;85.08
71768;BME280;59604;52.138;5.446;2023-01-29T10:31:36;102890.69;;;3.54;85.07
71768;BME280;59604;52.138;5.446;2023-01-29T10:34:40;102883.91;;;3.51;85.07
71768;BME280;59604;52.138;5.446;2023-01-29T10:37:17;102876.06;;;3.51;84.93
71768;BME280;59604;52.138;5.446;2023-01-29T10:39:45;102874.19;;;3.53;85.46
71768;BME280;59604;52.138;5.446;2023-01-29T10:50:02;102853.47;;;3.66;85.43
71768;BME280;59604;52.138;5.446;2023-01-29T10:52:49;102861.84;;;3.71;85.18
71768;BME280;59604;52.138;5.446;2023-01-29T10:56:02;102848.63;;;3.74;84.75
71768;BME280;59604;52.138;5.446;2023-01-29T10:58:50;102847.59;;;3.77;84.90
71768;BME280;59604;52.138;5.446;2023-01-29T11:01:20;102844.06;;;3.78;85.07
71768;BME280;59604;52.138;5.446;2023-01-29T11:03:55;102842.41;;;3.77;84.68
71768;BME280;59604;52.138;5.446;2023-01-29T11:06:28;102838.84;;;3.78;84.65
71768;BME280;59604;52.138;5.446;2023-01-29T11:09:23;102839.50;;;3.81;84.81
71768;BME280;59604;52.138;5.446;2023-01-29T11:12:12;102830.84;;;3.81;84.82
71768;BME280;59604;52.138;5.446;2023-01-29T11:15:00;102830.66;;;3.84;84.49
71768;BME280;59604;52.138;5.446;2023-01-29T11:17:31;102819.41;;;3.83;84.83
71768;BME280;59604;52.138;5.446;2023-01-29T11:20:00;102821.78;;;3.86;84.58
71768;BME280;59604;52.138;5.446;2023-01-29T11:22:29;102821.72;;;3.88;84.75
71768;BME280;59604;52.138;5.446;2023-01-29T11:25:18;102811.28;;;3.88;84.42
71768;BME280;59604;52.138;5.446;2023-01-29T11:27:47;102819.13;;;3.88;84.64
71768;BME280;59604;52.138;5.446;2023-01-29T11:30:19;102813.72;;;3.91;84.84
71768;BME280;59604;52.138;5.446;2023-01-29T11:35:30;102811.19;;;3.90;84.69
71768;BME280;59604;52.138;5.446;2023-01-29T11:38:07;102816.31;;;3.91;84.32
71768;BME280;59604;52.138;5.446;2023-01-29T11:40:37;102806.72;;;3.92;84.60
71768;BME280;59604;52.138;5.446;2023-01-29T11:43:16;102796.28;;;3.92;84.91
71768;BME280;59604;52.138;5.446;2023-01-29T11:45:44;102793.59;;;3.93;84.65
71768;BME280;59604;52.138;5.446;2023-01-29T11:48:17;102797.13;;;3.92;84.53
71768;BME280;59604;52.138;5.446;2023-01-29T11:50:59;102790.97;;;3.93;84.85
71768;BME280;59604;52.138;5.446;2023-01-29T11:53:38;102790.97;;;3.93;84.63
71768;BME280;59604;52.138;5.446;2023-01-29T11:58:59;102791.91;;;3.92;85.14
71768;BME280;59604;52.138;5.446;2023-01-29T12:01:34;102782.31;;;3.93;84.95
71768;BME280;59604;52.138;5.446;2023-01-29T12:04:10;102777.09;;;3.93;85.15
71768;BME280;59604;52.138;5.446;2023-01-29T12:06:44;102771.06;;;3.92;85.42
71768;BME280;59604;52.138;5.446;2023-01-29T12:09:16;102770.13;;;3.93;85.68
71768;BME280;59604;52.138;5.446;2023-01-29T12:11:44;102762.28;;;3.93;85.57
71768;BME280;59604;52.138;5.446;2023-01-29T12:14:31;102759.69;;;3.93;85.69
71768;BME280;59604;52.138;5.446;2023-01-29T12:17:16;102749.25;;;3.93;85.82
71768;BME280;59604;52.138;5.446;2023-01-29T12:19:56;102743.13;;;3.94;86.16
71768;BME280;59604;52.138;5.446;2023-01-29T12:22:50;102734.25;;;3.97;86.31
71768;BME280;59604;52.138;5.446;2023-01-29T12:25:29;102729.81;;;3.99;86.12
71768;BME280;59604;52.138;5.446;2023-01-29T12:28:21;102721.16;;;3.98;86.81
71768;BME280;59604;52.138;5.446;2023-01-29T12:33:42;102713.41;;;3.97;86.33
71768;BME280;59604;52.138;5.446;2023-01-29T12:36:44;102707.16;;;3.99;86.67
71768;BME280;59604;52.138;5.446;2023-01-29T12:39:19;102699.22;;;4.01;86.49
71768;BME280;59604;52.138;5.446;2023-01-29T12:41:53;102707.06;;;4.01;86.66
71768;BME280;59604;52.138;5.446;2023-01-29T12:44:32;102691.34;;;4.02;86.46
71768;BME280;59604;52.138;5.446;2023-01-29T12:47:05;102688.81;;;4.01;86.69
71768;BME280;59604;52.138;5.446;2023-01-29T12:49:36;102680.16;;;4.00;86.91
71768;BME280;59604;52.138;5.446;2023-01-29T12:52:28;102683.59;;;4.01;86.30
71768;BME280;59604;52.138;5.446;2023-01-29T12:55:02;102681.94;;;4.00;86.90
71768;BME280;59604;52.138;5.446;2023-01-29T13:00:15;102647.19;;;3.99;86.97
71768;BME280;59604;52.138;5.446;2023-01-29T13:05:33;102634.06;;;4.01;86.66
71768;BME280;59604;52.138;5.446;2023-01-29T13:08:10;102621.84;;;4.01;86.86
71768;BME280;59604;52.138;5.446;2023-01-29T13:10:47;102616.75;;;4.00;86.99
71768;BME280;59604;52.138;5.446;2023-01-29T13:13:30;102610.50;;;4.02;86.98
71768;BME280;59604;52.138;5.446;2023-01-29T13:15:59;102605.38;;;4.01;86.87
71768;BME280;59604;52.138;5.446;2023-01-29T13:21:24;102585.25;;;4.03;86.93
71768;BME280;59604;52.138;5.446;2023-01-29T13:24:01;102577.88;;;4.09;87.25
71768;BME280;59604;52.138;5.446;2023-01-29T13:26:28;102567.00;;;4.16;87.35
71768;BME280;59604;52.138;5.446;2023-01-29T13:28:56;102558.66;;;4.23;87.33
71768;BME280;59604;52.138;5.446;2023-01-29T13:31:28;102560.66;;;4.32;87.23
71768;BME280;59604;52.138;5.446;2023-01-29T13:34:51;102552.53;;;4.37;87.13
71768;BME280;59604;52.138;5.446;2023-01-29T13:36:57;102555.75;;;4.41;86.69
71768;BME280;59604;52.138;5.446;2023-01-29T13:39:29;102539.16;;;4.42;86.52
71768;BME280;59604;52.138;5.446;2023-01-29T13:41:58;102543.44;;;4.43;86.66
71768;BME280;59604;52.138;5.446;2023-01-29T13:47:01;102543.25;;;4.46;86.79
71768;BME280;59604;52.138;5.446;2023-01-29T13:49:35;102551.91;;;4.46;86.41
71768;BME280;59604;52.138;5.446;2023-01-29T13:54:51;102547.59;;;4.45;86.49
71768;BME280;59604;52.138;5.446;2023-01-29T14:00:05;102543.00;;;4.49;86.42
71768;BME280;59604;52.138;5.446;2023-01-29T14:02:32;102541.97;;;4.51;86.44
71768;BME280;59604;52.138;5.446;2023-01-29T14:10:40;102537.38;;;4.55;86.37
71768;BME280;59604;52.138;5.446;2023-01-29T14:15:45;102539.16;;;4.54;86.81
71768;BME280;59604;52.138;5.446;2023-01-29T14:18:17;102531.31;;;4.54;86.91
71768;BME280;59604;52.138;5.446;2023-01-29T14:21:03;102521.84;;;4.53;86.45
71768;BME280;59604;52.138;5.446;2023-01-29T14:29:14;102520.06;;;4.54;87.01
71768;BME280;59604;52.138;5.446;2023-01-29T14:31:58;102531.44;;;4.53;86.79
71768;BME280;59604;52.138;5.446;2023-01-29T14:34:29;102525.16;;;4.55;87.42
71768;BME280;59604;52.138;5.446;2023-01-29T14:37:02;102506.69;;;4.58;87.65
71768;BME280;59604;52.138;5.446;2023-01-29T14:39:43;102505.03;;;4.57;87.14
71768;BME280;59604;52.138;5.446;2023-01-29T14:53:28;102497.41;;;4.54;87.16
71768;BME280;59604;52.138;5.446;2023-01-29T14:56:02;102492.31;;;4.53;87.69
71768;BME280;59604;52.138;5.446;2023-01-29T14:58:36;102490.63;;;4.52;87.70
71768;BME280;59604;52.138;5.446;2023-01-29T15:01:06;102496.78;;;4.51;87.33
71768;BME280;59604;52.138;5.446;2023-01-29T15:03:46;102486.47;;;4.49;88.19
71768;BME280;59604;52.138;5.446;2023-01-29T15:06:18;102480.38;;;4.49;88.03
71768;BME280;59604;52.138;5.446;2023-01-29T15:08:54;102473.41;;;4.49;88.02
71768;BME280;59604;52.138;5.446;2023-01-29T15:11:32;102464.53;;;4.52;87.99
71768;BME280;59604;52.138;5.446;2023-01-29T15:19:33;102460.13;;;4.52;87.39
71768;BME280;59604;52.138;5.446;2023-01-29T15:22:04;102458.38;;;4.53;87.90
71768;BME280;59604;52.138;5.446;2023-01-29T15:24:36;102454.09;;;4.52;87.84
71768;BME280;59604;52.138;5.446;2023-01-29T15:27:06;102462.88;;;4.51;87.86
71768;BME280;59604;52.138;5.446;2023-01-29T15:29:36;102457.75;;;4.49;87.96
71768;BME280;59604;52.138;5.446;2023-01-29T15:32:04;102462.25;;;4.47;88.16
71768;BME280;59604;52.138;5.446;2023-01-29T15:34:31;102457.97;;;4.46;88.23
71768;BME280;59604;52.138;5.446;2023-01-29T15:36:58;102462.38;;;4.46;88.38
71768;BME280;59604;52.138;5.446;2023-01-29T15:39:25;102445.03;;;4.45;88.04